Time;durP1;ratioP1;P1;durP2;ratioP2;P2;SDS_P1;SDS_P2;PMS_P1;PMS_P2;Temp;Humidity;BMP_temperature;BMP_pressure;BME280_temperature;BME280_humidity;BME280_pressure;Samples;Min_cycle;Max_cycle;Signal;HPM_P1;HPM_P2
2022/10/02 00:00:43;;;;;;;0.10;0.10;;;;;;;21.35;61.65;94821.50;5027891;28;20455;-62
2022/10/02 00:03:34;;;;;;;0.00;0.00;;;;;;;21.41;61.33;94815.66;5027488;28;20958;-61
2022/10/02 00:06:14;;;;;;;0.23;0.23;;;;;;;21.46;60.92;94812.03;5028292;28;20471;-65
2022/10/02 00:08:41;;;;;;;0.10;0.10;;;;;;;21.72;60.17;94809.91;5028431;28;20448;-62
2022/10/02 00:11:16;;;;;;;0.30;0.30;;;;;;;21.91;59.08;94812.91;5028242;28;20807;-62
2022/10/02 00:13:48;;;;;;;0.10;0.10;;;;;;;21.49;60.33;94811.34;5028394;28;20837;-62
2022/10/02 00:16:35;;;;;;;0.20;0.20;;;;;;;21.64;59.76;94814.19;5027556;28;20525;-62
2022/10/02 00:19:03;;;;;;;0.00;0.00;;;;;;;21.83;59.75;94811.09;5027817;28;20549;-62
2022/10/02 00:21:39;;;;;;;0.00;0.00;;;;;;;21.46;60.02;94812.03;5028082;28;20440;-62
2022/10/02 00:24:13;;;;;;;0.10;0.10;;;;;;;21.65;60.26;94812.31;5027408;28;20448;-64
2022/10/02 00:26:55;;;;;;;0.30;0.30;;;;;;;21.26;61.43;94818.13;5028060;28;20444;-62
2022/10/02 00:29:59;;;;;;;0.00;0.00;;;;;;;21.63;60.56;94827.88;5026543;28;20845;-61
2022/10/02 00:32:37;;;;;;;0.10;0.10;;;;;;;21.56;60.55;94827.59;5025100;28;20634;-64
2022/10/02 00:35:29;;;;;;;0.10;0.10;;;;;;;21.69;60.26;94827.34;5027907;28;20450;-62
2022/10/02 00:38:11;;;;;;;0.10;0.10;;;;;;;21.80;60.27;94819.75;5027526;28;20439;-62
2022/10/02 00:41:04;;;;;;;0.07;0.07;;;;;;;21.81;59.94;94821.31;5027793;28;20844;-62
2022/10/02 00:44:08;;;;;;;0.20;0.20;;;;;;;22.11;59.55;94833.44;5053162;28;20451;-62
2022/10/02 00:46:48;;;;;;;0.33;0.33;;;;;;;21.76;60.44;94848.16;5028988;28;20454;-62
2022/10/02 00:49:30;;;;;;;0.10;0.10;;;;;;;21.51;61.24;94862.47;5027697;28;20459;-62
2022/10/02 00:52:06;;;;;;;0.20;0.20;;;;;;;21.45;60.92;94858.44;5026845;28;20444;-60
2022/10/02 00:54:58;;;;;;;0.20;0.20;;;;;;;21.31;61.35;94857.91;5027006;28;20471;-62
2022/10/02 00:57:39;;;;;;;0.10;0.10;;;;;;;21.64;60.58;94861.44;5027135;28;20448;-61
2022/10/02 01:00:13;;;;;;;0.53;0.53;;;;;;;21.60;60.47;94860.53;5027005;28;20994;-61
2022/10/02 01:03:10;;;;;;;0.13;0.13;;;;;;;22.11;58.78;94860.94;5027033;28;20443;-61
2022/10/02 01:05:38;;;;;;;0.90;0.90;;;;;;;21.54;60.27;94861.81;5026936;28;20541;-61
2022/10/02 01:08:06;;;;;;;0.10;0.10;;;;;;;21.71;59.36;94861.69;5026497;28;20446;-61
2022/10/02 01:10:36;;;;;;;0.10;0.10;;;;;;;21.26;60.56;94860.75;5026849;28;20989;-62
2022/10/02 01:13:04;;;;;;;0.17;0.17;;;;;;;21.40;60.91;94856.75;5026757;28;20787;-61
2022/10/02 01:15:36;;;;;;;0.10;0.10;;;;;;;21.18;61.17;94865.78;5026674;28;20440;-61
2022/10/02 01:18:03;;;;;;;0.73;0.50;;;;;;;20.64;61.84;94876.50;5029115;28;20451;-59
2022/10/02 01:20:47;;;;;;;0.20;0.20;;;;;;;20.98;61.61;94877.16;5026414;28;20519;-61
2022/10/02 01:23:33;;;;;;;0.10;0.10;;;;;;;21.18;60.47;94876.44;5026356;28;20767;-61
2022/10/02 01:26:00;;;;;;;0.37;0.30;;;;;;;20.47;61.75;94880.00;5026291;28;20867;-62
2022/10/02 01:28:28;;;;;;;0.00;0.00;;;;;;;20.30;62.26;94876.59;5026071;28;20436;-61
2022/10/02 01:31:07;;;;;;;0.23;0.23;;;;;;;20.17;61.96;94873.03;5025853;28;20440;-61
2022/10/02 01:33:36;;;;;;;0.20;0.20;;;;;;;20.00;61.56;94881.75;5026331;28;20453;-62
2022/10/02 01:36:04;;;;;;;0.40;0.37;;;;;;;20.18;60.49;94874.59;5026869;28;20550;-61
2022/10/02 01:38:31;;;;;;;0.00;0.00;;;;;;;19.87;60.38;94884.59;5026454;28;20531;-63
2022/10/02 01:40:58;;;;;;;0.10;0.10;;;;;;;19.89;60.55;94887.75;5026224;28;20630;-63
2022/10/02 01:43:32;;;;;;;0.70;0.70;;;;;;;19.91;60.04;94888.97;5026389;28;20681;-61
2022/10/02 01:46:28;;;;;;;0.10;0.10;;;;;;;20.15;59.48;94891.16;5026424;28;20810;-61
2022/10/02 01:49:12;;;;;;;0.00;0.00;;;;;;;19.86;59.79;94905.09;5026296;28;20848;-62
2022/10/02 01:52:29;;;;;;;0.10;0.10;;;;;;;19.35;60.71;94901.56;5026529;28;20471;-61
2022/10/02 01:55:34;;;;;;;0.10;0.10;;;;;;;19.50;60.50;94906.47;5025771;28;20440;-62
2022/10/02 01:58:18;;;;;;;0.10;0.10;;;;;;;19.57;59.75;94915.53;5006611;28;20440;-63
2022/10/02 02:01:01;;;;;;;0.10;0.10;;;;;;;19.56;60.04;94913.19;5026157;28;20545;-63
2022/10/02 02:03:38;;;;;;;0.30;0.30;;;;;;;19.68;59.18;94902.72;5026426;28;20439;-63
2022/10/02 02:06:18;;;;;;;0.00;0.00;;;;;;;19.38;59.88;94909.72;5025326;28;22153;-61
2022/10/02 02:08:50;;;;;;;0.00;0.00;;;;;;;19.62;59.11;94903.97;5026110;28;20456;-60
2022/10/02 02:11:20;;;;;;;0.00;0.00;;;;;;;19.66;58.57;94904.91;5025581;28;20444;-62
2022/10/02 02:14:04;;;;;;;0.10;0.10;;;;;;;20.09;57.49;94911.00;5025536;28;20538;-62
2022/10/02 02:16:38;;;;;;;0.03;0.03;;;;;;;19.69;57.45;94909.63;5026271;28;20505;-63
2022/10/02 02:19:16;;;;;;;0.10;0.10;;;;;;;19.43;57.72;94927.41;5026088;28;20906;-62
2022/10/02 02:22:00;;;;;;;0.10;0.10;;;;;;;19.04;58.68;94923.66;5025582;28;20462;-62
2022/10/02 02:24:35;;;;;;;0.00;0.00;;;;;;;19.14;58.79;94941.97;5025946;28;20459;-66
2022/10/02 02:27:04;;;;;;;0.13;0.13;;;;;;;19.20;58.70;94940.75;5026240;28;20461;-61
2022/10/02 02:29:36;;;;;;;0.30;0.30;;;;;;;19.50;57.80;94944.47;5025984;28;20531;-62
2022/10/02 02:32:09;;;;;;;0.30;0.30;;;;;;;19.43;57.47;94943.34;5025893;28;20566;-62
2022/10/02 02:34:48;;;;;;;0.27;0.27;;;;;;;19.39;57.80;94943.19;5025831;28;20502;-62
2022/10/02 02:37:19;;;;;;;0.10;0.10;;;;;;;18.58;59.08;94949.81;5025949;28;20444;-63
2022/10/02 02:39:49;;;;;;;0.27;0.27;;;;;;;18.82;58.79;94950.28;5025365;28;20566;-66
2022/10/02 02:42:21;;;;;;;0.00;0.00;;;;;;;18.85;58.74;94949.66;5025194;28;20517;-63
2022/10/02 02:45:01;;;;;;;0.00;0.00;;;;;;;18.44;59.28;94957.09;5025529;28;20466;-63
2022/10/02 02:47:36;;;;;;;0.10;0.10;;;;;;;18.78;58.72;94959.94;5028598;28;20487;-64
2022/10/02 02:50:22;;;;;;;0.47;0.40;;;;;;;18.76;58.41;94959.44;5025299;28;20460;-63
2022/10/02 02:53:04;;;;;;;0.00;0.00;;;;;;;18.84;58.03;94969.34;5025641;28;20505;-64
2022/10/02 02:55:41;;;;;;;0.00;0.00;;;;;;;18.90;58.02;94962.03;5025576;28;20506;-62
2022/10/02 02:58:23;;;;;;;0.10;0.10;;;;;;;18.88;58.16;94980.94;5025702;28;20440;-63
2022/10/02 03:00:50;;;;;;;0.07;0.07;;;;;;;18.99;57.26;94984.09;5024755;28;20629;-63
2022/10/02 03:03:17;;;;;;;0.10;0.10;;;;;;;19.03;57.78;94988.47;5025512;28;20959;-61
2022/10/02 03:05:49;;;;;;;0.10;0.10;;;;;;;19.11;57.53;94997.56;5025579;28;20527;-63
2022/10/02 03:08:30;;;;;;;0.27;0.27;;;;;;;19.14;56.87;94992.44;5025350;28;20444;-63
2022/10/02 03:11:20;;;;;;;0.00;0.00;;;;;;;19.06;56.69;94997.72;5025300;28;20466;-64
2022/10/02 03:13:52;;;;;;;0.00;0.00;;;;;;;18.92;57.37;95008.41;5025367;28;20444;-65
2022/10/02 03:16:41;;;;;;;0.37;0.37;;;;;;;18.89;57.53;95014.34;5025133;28;20448;-64
2022/10/02 03:19:14;;;;;;;0.00;0.00;;;;;;;18.86;57.73;95012.31;5024729;28;20471;-65
2022/10/02 03:21:50;;;;;;;0.10;0.10;;;;;;;19.19;57.00;95018.88;5025515;28;20451;-63
2022/10/02 03:24:28;;;;;;;0.90;0.57;;;;;;;18.84;58.16;95033.06;5023619;28;20450;-62
2022/10/02 03:27:01;;;;;;;1.23;0.50;;;;;;;18.60;58.30;95026.47;5025453;28;20443;-66
2022/10/02 03:29:39;;;;;;;0.00;0.00;;;;;;;19.29;56.86;95033.00;5028215;28;20440;-65
2022/10/02 03:32:10;;;;;;;0.10;0.10;;;;;;;19.19;56.74;95036.69;5028954;28;20439;-63
2022/10/02 03:34:38;;;;;;;0.00;0.00;;;;;;;19.19;56.48;95013.56;5028671;28;20807;-63
2022/10/02 03:37:06;;;;;;;0.00;0.00;;;;;;;19.13;56.85;95020.09;5028934;28;20478;-64
2022/10/02 03:39:33;;;;;;;0.10;0.10;;;;;;;18.52;58.37;95025.31;5028463;28;20577;-64
2022/10/02 03:42:02;;;;;;;0.10;0.10;;;;;;;18.95;57.89;95025.63;5028308;28;20542;-64
2022/10/02 03:44:29;;;;;;;0.20;0.20;;;;;;;18.54;58.39;95028.47;5028050;28;20491;-62
2022/10/02 03:46:55;;;;;;;0.20;0.20;;;;;;;18.37;59.34;95033.63;5029056;28;20507;-62
2022/10/02 03:49:22;;;;;;;0.23;0.23;;;;;;;18.92;57.77;95024.34;5028345;28;20473;-62
2022/10/02 03:51:49;;;;;;;6.70;0.80;;;;;;;18.81;57.83;95033.66;5028443;28;20440;-65
2022/10/02 03:54:18;;;;;;;0.70;0.70;;;;;;;18.79;58.17;95032.41;5028578;28;20497;-63
2022/10/02 03:56:57;;;;;;;0.10;0.10;;;;;;;19.01;57.56;95027.06;5028971;28;20519;-61
2022/10/02 03:59:49;;;;;;;0.10;0.10;;;;;;;18.42;58.74;95041.50;5028903;28;20487;-62
2022/10/02 04:02:42;;;;;;;0.47;0.47;;;;;;;19.09;57.59;95061.63;5028553;28;20430;-62
2022/10/02 04:05:23;;;;;;;0.00;0.00;;;;;;;18.80;57.49;95058.63;5028288;28;20518;-64
2022/10/02 04:07:55;;;;;;;0.10;0.10;;;;;;;18.93;56.81;95052.47;5028096;28;20444;-63
2022/10/02 04:10:38;;;;;;;0.10;0.10;;;;;;;19.00;56.04;95057.34;5028051;28;20943;-60
2022/10/02 04:13:25;;;;;;;0.40;0.40;;;;;;;19.27;55.92;95062.50;5028706;28;20443;-59
2022/10/02 04:16:11;;;;;;;0.10;0.10;;;;;;;18.91;56.74;95081.22;5028122;28;20762;-62
2022/10/02 04:18:50;;;;;;;0.20;0.20;;;;;;;19.08;56.53;95091.94;5028584;28;20521;-62
2022/10/02 04:21:33;;;;;;;0.37;0.37;;;;;;;19.53;55.00;95099.84;5027919;28;21011;-62
2022/10/02 04:24:23;;;;;;;0.00;0.00;;;;;;;19.44;55.00;95114.97;5028063;28;20444;-68
2022/10/02 04:27:24;;;;;;;0.10;0.10;;;;;;;19.25;54.69;95111.72;5027992;28;20443;-62
2022/10/02 04:30:19;;;;;;;0.10;0.10;;;;;;;19.19;55.06;95114.53;5028287;28;20427;-63
2022/10/02 04:32:46;;;;;;;0.20;0.20;;;;;;;19.11;54.80;95096.66;5028683;28;20904;-63
2022/10/02 04:35:17;;;;;;;0.40;0.40;;;;;;;19.42;54.24;95101.22;5028321;28;20529;-62
2022/10/02 04:38:02;;;;;;;0.47;0.47;;;;;;;19.25;54.56;95111.72;5027839;28;20962;-62
2022/10/02 04:40:51;;;;;;;0.23;0.23;;;;;;;19.26;54.44;95115.94;5027085;28;20975;-62
2022/10/02 04:43:26;;;;;;;0.47;0.30;;;;;;;19.73;53.54;95113.41;5027739;28;20436;-62
2022/10/02 04:46:22;;;;;;;0.30;0.30;;;;;;;19.34;54.60;95117.91;5027256;28;20459;-64
2022/10/02 04:49:19;;;;;;;0.20;0.20;;;;;;;19.14;54.85;95133.22;5026983;28;20957;-62
2022/10/02 04:52:04;;;;;;;0.40;0.30;;;;;;;19.06;54.78;95126.00;5027026;28;20791;-65
2022/10/02 04:54:53;;;;;;;0.50;0.50;;;;;;;19.38;54.34;95138.25;5027109;28;21084;-64
2022/10/02 04:57:54;;;;;;;0.00;0.00;;;;;;;19.55;53.54;95132.22;5027475;28;20448;-66
2022/10/02 05:00:30;;;;;;;0.10;0.10;;;;;;;19.71;53.44;95133.41;5040180;28;20494;-63
2022/10/02 05:03:43;;;;;;;2.43;1.33;;;;;;;19.75;53.10;95145.00;5045445;28;20439;-64
2022/10/02 05:06:19;;;;;;;0.47;0.40;;;;;;;19.82;52.80;95163.94;5027056;28;20447;-64
2022/10/02 05:08:57;;;;;;;0.13;0.13;;;;;;;19.56;53.06;95165.72;5027523;28;20463;-63
2022/10/02 05:11:41;;;;;;;0.10;0.10;;;;;;;19.79;52.42;95165.38;5026915;28;21014;-63
2022/10/02 05:14:22;;;;;;;0.50;0.50;;;;;;;19.74;52.37;95175.34;5027187;28;20443;-63
2022/10/02 05:17:19;;;;;;;0.10;0.10;;;;;;;19.98;51.30;95170.47;5027193;28;20538;-64
2022/10/02 05:20:25;;;;;;;0.30;0.30;;;;;;;20.46;50.37;95178.44;5026309;28;20947;-63
2022/10/02 05:23:18;;;;;;;0.17;0.17;;;;;;;20.47;50.58;95186.13;5025856;28;20542;-67
2022/10/02 05:25:49;;;;;;;0.13;0.13;;;;;;;20.05;50.69;95174.22;5026482;28;20440;-64
2022/10/02 05:28:31;;;;;;;0.10;0.10;;;;;;;20.44;49.57;95181.41;5027252;28;20543;-64
2022/10/02 05:31:32;;;;;;;0.20;0.20;;;;;;;20.84;49.13;95177.56;5027192;28;20447;-64
2022/10/02 05:34:37;;;;;;;0.30;0.30;;;;;;;20.96;48.51;95177.75;5027300;28;20463;-63
2022/10/02 05:37:17;;;;;;;0.00;0.00;;;;;;;20.79;48.73;95172.41;5026853;28;20505;-65
2022/10/02 05:39:49;;;;;;;0.10;0.10;;;;;;;19.73;49.73;95177.22;5026373;28;20498;-67
2022/10/02 05:42:31;;;;;;;0.13;0.13;;;;;;;19.91;49.86;95178.88;5026200;28;20501;-65
2022/10/02 05:45:20;;;;;;;0.27;0.27;;;;;;;20.01;49.13;95191.13;5025918;28;20585;-64
2022/10/02 05:47:49;;;;;;;0.30;0.30;;;;;;;19.67;49.69;95181.09;5026504;28;20444;-67
2022/10/02 05:50:19;;;;;;;0.10;0.10;;;;;;;20.39;48.73;95200.19;5025609;28;21343;-62
2022/10/02 05:52:56;;;;;;;0.50;0.50;;;;;;;20.37;48.84;95206.91;5026150;28;20601;-63
2022/10/02 05:55:27;;;;;;;0.00;0.00;;;;;;;20.38;48.42;95203.97;5024945;28;20428;-64
2022/10/02 05:58:02;;;;;;;0.23;0.23;;;;;;;20.30;49.43;95207.38;5025714;28;20524;-66
2022/10/02 06:00:37;;;;;;;0.30;0.30;;;;;;;20.61;47.54;95218.75;5025907;28;20479;-64
2022/10/02 06:03:11;;;;;;;0.10;0.10;;;;;;;19.37;48.25;95210.28;5025108;28;21033;-65
2022/10/02 06:05:47;;;;;;;0.53;0.53;;;;;;;20.24;48.05;95229.88;5025746;28;20443;-66
2022/10/02 06:08:19;;;;;;;0.00;0.00;;;;;;;19.63;48.74;95240.50;5025703;28;20455;-64
2022/10/02 06:10:50;;;;;;;0.10;0.10;;;;;;;20.28;48.10;95240.69;5026514;28;20455;-63
2022/10/02 06:13:24;;;;;;;0.00;0.00;;;;;;;19.96;48.25;95247.88;5025600;28;20443;-64
2022/10/02 06:16:13;;;;;;;0.20;0.20;;;;;;;19.97;47.73;95240.69;5025690;28;20520;-62
2022/10/02 06:18:44;;;;;;;0.10;0.10;;;;;;;19.71;48.36;95245.06;5025879;28;21203;-63
2022/10/02 06:21:23;;;;;;;0.00;0.00;;;;;;;20.26;47.19;95254.31;5026034;28;20506;-64
2022/10/02 06:23:55;;;;;;;0.20;0.20;;;;;;;20.48;46.58;95256.13;5025633;28;20439;-63
2022/10/02 06:26:47;;;;;;;0.00;0.00;;;;;;;20.61;46.88;95256.00;5025311;28;20436;-64
2022/10/02 06:29:23;;;;;;;0.00;0.00;;;;;;;20.30;46.98;95262.47;5025646;28;20475;-64
2022/10/02 06:32:22;;;;;;;0.10;0.10;;;;;;;20.01;47.52;95262.94;5025513;28;20498;-64
2022/10/02 06:34:49;;;;;;;0.77;0.77;;;;;;;20.26;47.36;95266.81;5025819;28;20448;-63
2022/10/02 06:37:49;;;;;;;0.30;0.30;;;;;;;19.95;47.64;95274.78;5026086;28;20450;-64
2022/10/02 06:40:49;;;;;;;0.17;0.17;;;;;;;20.33;47.01;95281.28;5025237;28;20475;-62
2022/10/02 06:43:43;;;;;;;1.00;0.63;;;;;;;20.79;46.50;95276.28;5050585;28;20455;-63
2022/10/02 06:46:41;;;;;;;0.43;0.43;;;;;;;20.32;47.19;95279.72;5025291;28;20471;-67
2022/10/02 06:49:21;;;;;;;0.13;0.13;;;;;;;20.39;47.06;95285.38;5024113;28;20444;-64
2022/10/02 06:52:14;;;;;;;0.10;0.10;;;;;;;20.70;46.62;95286.13;5024533;28;20435;-61
2022/10/02 06:55:20;;;;;;;4.37;0.83;;;;;;;21.01;45.69;95281.53;5023992;28;20454;-64
2022/10/02 06:58:02;;;;;;;0.50;0.50;;;;;;;20.83;46.17;95279.09;5023734;28;20439;-64
2022/10/02 07:00:36;;;;;;;0.43;0.43;;;;;;;20.14;46.86;95286.00;5024191;28;20553;-62
2022/10/02 07:03:39;;;;;;;0.20;0.20;;;;;;;20.31;46.32;95291.44;5026710;28;20443;-65
2022/10/02 07:06:29;;;;;;;0.30;0.30;;;;;;;19.88;47.32;95293.06;5039035;28;20975;-66
2022/10/02 07:09:26;;;;;;;0.33;0.33;;;;;;;20.27;45.96;95285.19;5027913;28;20450;-63
2022/10/02 07:12:15;;;;;;;0.00;0.00;;;;;;;20.95;45.45;95288.06;5028737;28;20436;-67
2022/10/02 07:15:08;;;;;;;0.10;0.10;;;;;;;20.50;46.06;95286.66;5027863;28;20448;-63
2022/10/02 07:17:38;;;;;;;0.00;0.00;;;;;;;20.39;46.03;95290.69;5047673;28;20463;-64
2022/10/02 07:20:20;;;;;;;0.20;0.20;;;;;;;20.64;45.34;95275.91;5028868;28;20471;-63
2022/10/02 07:23:05;;;;;;;0.30;0.30;;;;;;;20.70;45.50;95264.03;5028777;28;20525;-64
2022/10/02 07:25:36;;;;;;;0.17;0.17;;;;;;;20.27;45.19;95276.41;5028222;28;21222;-62
2022/10/02 07:28:23;;;;;;;0.00;0.00;;;;;;;20.55;44.53;95262.56;5028843;28;20468;-63
2022/10/02 07:31:00;;;;;;;0.20;0.20;;;;;;;20.82;43.76;95251.66;5028733;28;20856;-64
2022/10/02 07:33:34;;;;;;;0.00;0.00;;;;;;;20.36;44.10;95259.38;5028423;28;20442;-65
2022/10/02 07:36:29;;;;;;;0.20;0.20;;;;;;;21.10;43.00;95262.88;5028167;28;20446;-61
2022/10/02 07:39:14;;;;;;;0.17;0.17;;;;;;;21.31;42.27;95284.38;5029033;28;20513;-61
2022/10/02 07:41:58;;;;;;;0.20;0.20;;;;;;;21.49;42.02;95280.63;5029178;28;20553;-65
2022/10/02 07:44:32;;;;;;;0.23;0.17;;;;;;;21.54;41.83;95283.13;5028632;28;20489;-64
2022/10/02 07:47:14;;;;;;;6.23;0.73;;;;;;;21.91;41.51;95293.16;5029282;28;20470;-62
2022/10/02 07:50:00;;;;;;;0.43;0.43;;;;;;;21.60;40.48;95295.19;5028809;28;20443;-65
2022/10/02 07:53:08;;;;;;;16.27;8.63;;;;;;;21.93;40.74;95290.97;5029379;28;20978;-66
2022/10/02 07:55:40;;;;;;;0.83;0.83;;;;;;;21.97;39.86;95270.53;5027382;28;20452;-69
2022/10/02 07:58:21;;;;;;;0.20;0.20;;;;;;;22.40;39.31;95294.44;5029297;28;20969;-71
2022/10/02 08:01:29;;;;;;;0.27;0.27;;;;;;;22.45;39.80;95303.06;5028750;28;20521;-69
2022/10/02 08:04:01;;;;;;;3.27;3.03;;;;;;;22.49;37.08;95284.50;5029356;28;20521;-66
2022/10/02 08:06:30;;;;;;;0.80;0.80;;;;;;;23.02;37.24;95285.53;5029384;28;20447;-66
2022/10/02 08:09:04;;;;;;;0.13;0.13;;;;;;;23.12;36.13;95295.06;5029797;28;20531;-69
2022/10/02 08:11:40;;;;;;;0.73;0.37;;;;;;;22.56;35.96;95306.97;5029289;28;20470;-70
2022/10/02 08:14:30;;;;;;;2.50;2.27;;;;;;;22.45;36.31;95299.59;5026160;28;20442;-65
2022/10/02 08:17:19;;;;;;;0.27;0.27;;;;;;;22.86;36.04;95302.47;5028514;28;21261;-64
2022/10/02 08:19:49;;;;;;;11.40;5.63;;;;;;;22.48;35.88;95313.09;5028783;28;20482;-62
2022/10/02 08:22:38;;;;;;;0.20;0.20;;;;;;;22.44;36.34;95301.50;5027896;28;20511;-66
2022/10/02 08:25:30;;;;;;;0.57;0.57;;;;;;;22.70;36.91;95312.13;5027645;28;20578;-68
2022/10/02 08:28:34;;;;;;;0.33;0.30;;;;;;;22.64;36.06;95316.06;5028059;28;20443;-66
2022/10/02 08:31:08;;;;;;;0.60;0.57;;;;;;;22.66;36.91;95319.97;5054700;28;20907;-71
2022/10/02 08:33:37;;;;;;;0.97;0.50;;;;;;;22.78;36.18;95321.97;5033706;28;20459;-73
2022/10/02 08:36:47;;;;;;;0.60;0.60;;;;;;;23.06;36.98;95334.56;5035976;28;20470;-70
2022/10/02 08:39:54;;;;;;;0.50;0.50;;;;;;;23.05;37.67;95324.97;5030770;28;20527;-68
2022/10/02 08:43:21;;;;;;;0.30;0.30;;;;;;;22.84;37.00;95332.19;5034801;28;20490;-72
2022/10/02 08:46:05;;;;;;;0.30;0.30;;;;;;;23.00;36.37;95327.84;5051737;28;20216;-74
2022/10/02 08:48:57;;;;;;;0.50;0.47;;;;;;;22.86;36.04;95329.94;5053137;28;20455;-76
2022/10/02 08:51:27;;;;;;;0.17;0.17;;;;;;;22.72;36.07;95313.34;5032680;28;20444;-70
2022/10/02 08:54:18;;;;;;;0.20;0.20;;;;;;;23.26;36.37;95321.56;5032786;28;20551;-69
2022/10/02 08:57:13;;;;;;;0.50;0.50;;;;;;;23.22;35.34;95304.59;5035546;28;20466;-74
2022/10/02 09:00:09;;;;;;;0.07;0.07;;;;;;;23.28;35.15;95303.31;5048456;28;20447;-74
2022/10/02 09:02:55;;;;;;;2.57;2.13;;;;;;;24.17;34.95;95308.91;5034943;28;20483;-75
2022/10/02 09:05:23;;;;;;;0.67;0.67;;;;;;;23.39;34.17;95316.00;5027870;28;20228;-68
2022/10/02 09:08:02;;;;;;;0.10;0.10;;;;;;;23.60;34.51;95310.63;5029392;28;20882;-65
2022/10/02 09:11:05;;;;;;;0.20;0.20;;;;;;;23.56;34.49;95310.50;5037325;28;20538;-65
2022/10/02 09:14:23;;;;;;;0.10;0.10;;;;;;;23.75;34.28;95318.06;5031485;28;20196;-64
2022/10/02 09:16:50;;;;;;;0.20;0.20;;;;;;;23.94;34.20;95323.75;5043585;28;20339;-65
2022/10/02 09:19:41;;;;;;;0.40;0.40;;;;;;;23.98;33.85;95327.31;5043552;28;20204;-67
2022/10/02 09:22:43;;;;;;;0.00;0.00;;;;;;;24.29;33.68;95321.56;5032231;28;20742;-66
2022/10/02 09:25:35;;;;;;;0.67;0.67;;;;;;;24.29;33.36;95316.94;5042829;28;20565;-65
2022/10/02 09:28:24;;;;;;;0.27;0.27;;;;;;;24.49;32.89;95326.81;5046477;28;21027;-65
2022/10/02 09:31:04;;;;;;;0.07;0.07;;;;;;;24.10;33.13;95314.00;5048036;28;20754;-64
2022/10/02 09:33:34;;;;;;;0.00;0.00;;;;;;;23.75;34.11;95316.19;5046169;28;20678;-66
2022/10/02 09:36:47;;;;;;;0.47;0.47;;;;;;;23.76;33.30;95311.59;5036097;28;20274;-65
2022/10/02 09:39:50;;;;;;;0.10;0.10;;;;;;;24.22;33.07;95322.06;5033118;28;20457;-64
2022/10/02 09:42:48;;;;;;;0.10;0.10;;;;;;;24.12;31.91;95305.66;5033402;28;20231;-68
2022/10/02 09:45:39;;;;;;;0.23;0.23;;;;;;;24.41;32.74;95303.59;5047216;28;20319;-68
2022/10/02 09:48:22;;;;;;;0.20;0.20;;;;;;;24.73;32.66;95312.69;5038585;28;20768;-65
2022/10/02 09:51:03;;;;;;;0.43;0.30;;;;;;;24.54;32.57;95307.09;5037439;28;20259;-65
2022/10/02 09:54:14;;;;;;;8.73;2.17;;;;;;;24.36;32.60;95295.75;5041482;28;20221;-65
2022/10/02 09:56:58;;;;;;;0.50;0.50;;;;;;;23.54;32.57;95334.13;5036637;28;20746;-67
2022/10/02 09:59:57;;;;;;;0.30;0.30;;;;;;;23.83;32.53;95314.56;5035824;28;20188;-65
2022/10/02 10:02:46;;;;;;;0.20;0.20;;;;;;;23.76;33.28;95330.34;5033076;28;20234;-69
2022/10/02 10:05:31;;;;;;;3.47;0.77;;;;;;;23.71;32.63;95311.81;5047620;28;20201;-72
2022/10/02 10:08:12;;;;;;;0.00;0.00;;;;;;;23.50;33.77;95333.19;5039187;28;20867;-68
2022/10/02 10:10:54;;;;;;;0.23;0.23;;;;;;;24.09;33.34;95323.13;5042399;28;20443;-73
2022/10/02 10:13:21;;;;;;;0.63;0.63;;;;;;;23.97;32.35;95325.75;5027686;28;20871;-68
2022/10/02 10:16:02;;;;;;;0.10;0.10;;;;;;;24.60;33.19;95322.59;5030978;28;20706;-69
2022/10/02 10:19:15;;;;;;;0.37;0.37;;;;;;;25.24;32.59;95319.28;5036127;28;20200;-68
2022/10/02 10:22:01;;;;;;;1.07;0.77;;;;;;;24.95;31.52;95307.69;5037795;28;20932;-71
2022/10/02 10:25:00;;;;;;;0.97;0.83;;;;;;;23.86;33.12;95309.31;5033321;28;20442;-67
2022/10/02 10:27:50;;;;;;;0.20;0.20;;;;;;;24.22;32.91;95310.56;5033319;28;20225;-64
2022/10/02 10:30:55;;;;;;;0.10;0.10;;;;;;;24.28;32.86;95299.34;5035876;28;20224;-68
2022/10/02 10:33:54;;;;;;;1.60;1.50;;;;;;;23.89;33.19;95313.22;5026904;28;20677;-67
2022/10/02 10:39:29;;;;;;;6.50;1.23;;;;;;;24.08;32.77;95310.88;5033200;28;20228;-70
2022/10/02 10:42:18;;;;;;;0.20;0.20;;;;;;;24.25;32.08;95309.94;5036284;28;20259;-69
2022/10/02 10:44:54;;;;;;;0.30;0.30;;;;;;;24.72;32.48;95303.09;5030645;28;20320;-66
2022/10/02 10:47:33;;;;;;;0.10;0.10;;;;;;;25.15;31.55;95297.94;5030312;28;20203;-68
2022/10/02 10:50:27;;;;;;;0.10;0.10;;;;;;;24.98;32.41;95316.97;5030760;28;20197;-65
2022/10/02 10:53:13;;;;;;;0.27;0.27;;;;;;;24.95;31.65;95299.66;5030577;28;20201;-69
2022/10/02 10:56:18;;;;;;;0.10;0.10;;;;;;;24.30;32.46;95286.41;5039973;28;20610;-70
2022/10/02 10:59:06;;;;;;;1.77;1.67;;;;;;;25.14;32.22;95290.25;5037580;28;20192;-74
2022/10/02 11:01:48;;;;;;;0.40;0.40;;;;;;;25.11;30.88;95297.06;5035268;28;20302;-70
2022/10/02 11:04:24;;;;;;;0.53;0.50;;;;;;;25.51;30.41;95287.16;5031312;28;20208;-71
2022/10/02 11:07:00;;;;;;;0.20;0.20;;;;;;;24.84;30.53;95282.44;5045026;28;20201;-72
2022/10/02 11:09:52;;;;;;;0.10;0.10;;;;;;;25.17;31.20;95284.19;5030345;28;20442;-69
2022/10/02 11:12:31;;;;;;;0.00;0.00;;;;;;;24.93;30.61;95283.13;5036605;28;20222;-68
2022/10/02 11:15:17;;;;;;;0.10;0.10;;;;;;;25.64;29.96;95274.50;5050771;28;20619;-68
2022/10/02 11:17:59;;;;;;;0.10;0.10;;;;;;;24.96;29.75;95277.06;5039510;28;20200;-67
2022/10/02 11:20:57;;;;;;;0.40;0.40;;;;;;;24.15;30.99;95289.69;5049089;28;20806;-73
2022/10/02 11:23:59;;;;;;;1.93;1.07;;;;;;;24.08;31.41;95284.09;5040527;28;20202;-65
2022/10/02 11:27:01;;;;;;;0.20;0.20;;;;;;;24.45;31.42;95277.69;5046517;28;20196;-71
2022/10/02 11:30:11;;;;;;;1.03;0.77;;;;;;;24.67;30.48;95268.47;5031502;28;20247;-68
2022/10/02 11:32:41;;;;;;;0.10;0.10;;;;;;;24.64;30.48;95280.63;5043888;28;20198;-69
2022/10/02 11:35:43;;;;;;;0.10;0.10;;;;;;;24.51;30.44;95275.56;5042307;28;20581;-72
2022/10/02 11:38:22;;;;;;;0.47;0.40;;;;;;;24.84;30.37;95278.97;5039116;28;20598;-71
2022/10/02 11:41:13;;;;;;;0.20;0.20;;;;;;;25.02;29.38;95270.38;5033122;28;20205;-72
2022/10/02 11:44:03;;;;;;;0.10;0.10;;;;;;;25.14;29.57;95269.56;5029633;28;20264;-68
2022/10/02 11:46:43;;;;;;;0.10;0.10;;;;;;;25.07;30.10;95272.81;5045327;28;20196;-68
2022/10/02 11:49:28;;;;;;;0.10;0.10;;;;;;;24.56;30.04;95278.81;5030162;28;20622;-73
2022/10/02 11:52:27;;;;;;;0.43;0.43;;;;;;;25.59;30.05;95261.31;5029848;28;20837;-66
2022/10/02 11:54:56;;;;;;;0.13;0.13;;;;;;;25.61;29.73;95227.66;5030344;28;20276;-67
2022/10/02 11:57:33;;;;;;;0.30;0.30;;;;;;;25.80;29.08;95267.28;5030693;28;20236;-68
2022/10/02 12:00:37;;;;;;;0.13;0.13;;;;;;;25.82;29.20;95270.41;5033415;28;20255;-68
2022/10/02 12:03:25;;;;;;;0.20;0.20;;;;;;;25.28;29.51;95274.56;5042344;28;20219;-69
2022/10/02 12:06:01;;;;;;;0.10;0.10;;;;;;;25.44;28.91;95264.72;5030875;28;20201;-70
2022/10/02 12:08:47;;;;;;;0.10;0.10;;;;;;;25.24;30.32;95271.00;5029455;28;20671;-69
2022/10/02 12:11:32;;;;;;;0.20;0.20;;;;;;;24.76;30.39;95259.19;5029659;28;20283;-69
2022/10/02 12:14:25;;;;;;;1.00;1.00;;;;;;;25.63;29.97;95278.31;5039529;28;20209;-71
2022/10/02 12:17:30;;;;;;;0.10;0.10;;;;;;;25.63;30.25;95251.47;5043392;28;20205;-69
2022/10/02 12:28:57;;;;;;;0.37;0.30;;;;;;;25.53;29.47;95251.97;5043442;28;20895;-66
2022/10/02 12:31:43;;;;;;;1.03;0.63;;;;;;;25.38;29.70;95248.09;5041779;28;20193;-68
2022/10/02 12:34:22;;;;;;;0.17;0.17;;;;;;;25.73;29.57;95269.78;5035948;28;20203;-66
2022/10/02 12:37:28;;;;;;;0.10;0.10;;;;;;;26.19;28.66;95253.00;5048616;28;20258;-71
2022/10/02 12:39:55;;;;;;;0.10;0.10;;;;;;;25.54;28.88;95264.25;5041692;28;20216;-68
2022/10/02 12:42:30;;;;;;;0.10;0.10;;;;;;;25.53;28.60;95268.81;5030980;28;20231;-71
2022/10/02 12:45:18;;;;;;;0.10;0.10;;;;;;;26.70;28.35;95257.38;5035697;28;20739;-66
2022/10/02 12:48:17;;;;;;;0.17;0.17;;;;;;;26.58;27.76;95254.78;5029087;28;20262;-67
2022/10/02 12:50:44;;;;;;;0.33;0.33;;;;;;;26.41;28.60;95265.84;5029673;28;20232;-67
2022/10/02 12:53:35;;;;;;;0.17;0.17;;;;;;;26.05;29.03;95260.72;5042479;28;20734;-67
2022/10/02 12:56:20;;;;;;;0.20;0.20;;;;;;;26.37;28.25;95273.03;5038073;28;20700;-68
2022/10/02 12:58:56;;;;;;;0.30;0.30;;;;;;;26.14;28.32;95271.28;5044715;28;20251;-66
2022/10/02 13:01:48;;;;;;;0.20;0.20;;;;;;;26.16;28.04;95275.19;5027207;28;20568;-67